sensor_id;sensor_type;location;lat;lon;timestamp;temperature;humidity
13310;DHT22;6723;48.256;16.402;2022-08-18T00:01:39;24.70;77.30
13310;DHT22;6723;48.256;16.402;2022-08-18T00:04:07;24.70;76.90
13310;DHT22;6723;48.256;16.402;2022-08-18T00:06:33;24.70;77.00
13310;DHT22;6723;48.256;16.402;2022-08-18T00:09:03;24.60;76.80
13310;DHT22;6723;48.256;16.402;2022-08-18T00:11:32;24.70;77.10
13310;DHT22;6723;48.256;16.402;2022-08-18T00:13:58;24.70;76.70
13310;DHT22;6723;48.256;16.402;2022-08-18T00:16:24;24.70;75.80
13310;DHT22;6723;48.256;16.402;2022-08-18T00:18:49;24.70;75.90
13310;DHT22;6723;48.256;16.402;2022-08-18T00:21:16;24.70;75.80
13310;DHT22;6723;48.256;16.402;2022-08-18T00:23:42;24.60;75.20
13310;DHT22;6723;48.256;16.402;2022-08-18T00:26:08;24.60;75.10
13310;DHT22;6723;48.256;16.402;2022-08-18T00:28:34;24.60;74.90
13310;DHT22;6723;48.256;16.402;2022-08-18T00:31:00;24.60;74.60
13310;DHT22;6723;48.256;16.402;2022-08-18T00:33:26;24.60;74.80
13310;DHT22;6723;48.256;16.402;2022-08-18T00:35:52;24.50;74.50
13310;DHT22;6723;48.256;16.402;2022-08-18T00:38:18;24.50;74.80
13310;DHT22;6723;48.256;16.402;2022-08-18T00:40:48;24.40;75.20
13310;DHT22;6723;48.256;16.402;2022-08-18T00:43:40;24.30;75.50
13310;DHT22;6723;48.256;16.402;2022-08-18T00:46:11;24.30;76.10
13310;DHT22;6723;48.256;16.402;2022-08-18T00:48:38;24.40;76.30
13310;DHT22;6723;48.256;16.402;2022-08-18T00:51:09;24.30;75.40
13310;DHT22;6723;48.256;16.402;2022-08-18T00:53:42;24.30;75.20
13310;DHT22;6723;48.256;16.402;2022-08-18T00:56:33;24.30;75.90
13310;DHT22;6723;48.256;16.402;2022-08-18T00:59:28;24.10;76.00
13310;DHT22;6723;48.256;16.402;2022-08-18T01:01:59;24.00;76.40
13310;DHT22;6723;48.256;16.402;2022-08-18T01:04:35;24.00;77.50
13310;DHT22;6723;48.256;16.402;2022-08-18T01:07:09;24.00;77.50
13310;DHT22;6723;48.256;16.402;2022-08-18T01:09:37;23.90;77.70
13310;DHT22;6723;48.256;16.402;2022-08-18T01:12:03;23.90;78.00
13310;DHT22;6723;48.256;16.402;2022-08-18T01:14:29;23.90;78.70
13310;DHT22;6723;48.256;16.402;2022-08-18T01:16:55;23.90;77.40
13310;DHT22;6723;48.256;16.402;2022-08-18T01:19:39;23.90;78.80
13310;DHT22;6723;48.256;16.402;2022-08-18T01:22:33;23.80;78.40
13310;DHT22;6723;48.256;16.402;2022-08-18T01:25:01;23.80;78.70
13310;DHT22;6723;48.256;16.402;2022-08-18T01:27:46;23.80;78.80
13310;DHT22;6723;48.256;16.402;2022-08-18T01:30:15;23.80;79.60
13310;DHT22;6723;48.256;16.402;2022-08-18T01:32:43;23.80;78.90
13310;DHT22;6723;48.256;16.402;2022-08-18T01:35:12;23.80;78.00
13310;DHT22;6723;48.256;16.402;2022-08-18T01:37:39;23.70;78.60
13310;DHT22;6723;48.256;16.402;2022-08-18T01:40:08;23.70;79.30
13310;DHT22;6723;48.256;16.402;2022-08-18T01:42:36;23.70;79.40
13310;DHT22;6723;48.256;16.402;2022-08-18T01:45:03;23.60;77.80
13310;DHT22;6723;48.256;16.402;2022-08-18T01:47:31;23.60;78.60
13310;DHT22;6723;48.256;16.402;2022-08-18T01:49:59;23.60;79.40
13310;DHT22;6723;48.256;16.402;2022-08-18T01:52:26;23.60;80.30
13310;DHT22;6723;48.256;16.402;2022-08-18T01:54:55;23.60;79.10
13310;DHT22;6723;48.256;16.402;2022-08-18T01:57:22;23.50;79.00
13310;DHT22;6723;48.256;16.402;2022-08-18T01:59:49;23.50;80.70
13310;DHT22;6723;48.256;16.402;2022-08-18T02:02:19;23.40;80.80
13310;DHT22;6723;48.256;16.402;2022-08-18T02:04:50;23.40;79.80
13310;DHT22;6723;48.256;16.402;2022-08-18T02:07:19;23.20;79.10
13310;DHT22;6723;48.256;16.402;2022-08-18T02:09:44;23.20;79.60
13310;DHT22;6723;48.256;16.402;2022-08-18T02:12:12;23.30;81.40
13310;DHT22;6723;48.256;16.402;2022-08-18T02:14:38;23.30;82.30
13310;DHT22;6723;48.256;16.402;2022-08-18T02:17:08;23.30;82.80
13310;DHT22;6723;48.256;16.402;2022-08-18T02:19:41;23.20;83.10
13310;DHT22;6723;48.256;16.402;2022-08-18T02:22:09;23.30;83.20
13310;DHT22;6723;48.256;16.402;2022-08-18T02:24:37;23.30;83.50
13310;DHT22;6723;48.256;16.402;2022-08-18T02:27:03;23.30;83.30
13310;DHT22;6723;48.256;16.402;2022-08-18T02:29:29;23.30;83.30
13310;DHT22;6723;48.256;16.402;2022-08-18T02:31:55;23.20;82.70
13310;DHT22;6723;48.256;16.402;2022-08-18T02:34:21;23.20;83.00
13310;DHT22;6723;48.256;16.402;2022-08-18T02:36:47;23.20;83.60
13310;DHT22;6723;48.256;16.402;2022-08-18T02:39:12;23.20;83.60
13310;DHT22;6723;48.256;16.402;2022-08-18T02:41:38;23.20;83.50
13310;DHT22;6723;48.256;16.402;2022-08-18T02:44:06;23.20;83.60
13310;DHT22;6723;48.256;16.402;2022-08-18T02:46:32;23.10;82.00
13310;DHT22;6723;48.256;16.402;2022-08-18T02:48:59;23.10;83.00
13310;DHT22;6723;48.256;16.402;2022-08-18T02:51:26;23.10;83.50
13310;DHT22;6723;48.256;16.402;2022-08-18T02:53:52;23.10;83.50
13310;DHT22;6723;48.256;16.402;2022-08-18T02:56:22;23.10;82.80
13310;DHT22;6723;48.256;16.402;2022-08-18T02:59:00;23.10;82.30
13310;DHT22;6723;48.256;16.402;2022-08-18T03:01:29;23.00;83.70
13310;DHT22;6723;48.256;16.402;2022-08-18T03:03:57;23.00;84.50
13310;DHT22;6723;48.256;16.402;2022-08-18T03:06:25;22.90;83.90
13310;DHT22;6723;48.256;16.402;2022-08-18T03:08:51;22.80;84.90
13310;DHT22;6723;48.256;16.402;2022-08-18T03:11:21;22.80;85.00
13310;DHT22;6723;48.256;16.402;2022-08-18T03:13:48;22.70;84.00
13310;DHT22;6723;48.256;16.402;2022-08-18T03:16:14;22.80;84.30
13310;DHT22;6723;48.256;16.402;2022-08-18T03:18:42;22.70;85.50
13310;DHT22;6723;48.256;16.402;2022-08-18T03:21:12;22.80;86.20
13310;DHT22;6723;48.256;16.402;2022-08-18T03:23:39;22.80;85.80
13310;DHT22;6723;48.256;16.402;2022-08-18T03:26:10;22.70;85.50
13310;DHT22;6723;48.256;16.402;2022-08-18T03:28:44;22.70;86.10
13310;DHT22;6723;48.256;16.402;2022-08-18T03:31:12;22.80;86.90
13310;DHT22;6723;48.256;16.402;2022-08-18T03:33:40;22.80;86.40
13310;DHT22;6723;48.256;16.402;2022-08-18T03:36:25;22.80;86.20
13310;DHT22;6723;48.256;16.402;2022-08-18T03:38:51;22.90;86.40
13310;DHT22;6723;48.256;16.402;2022-08-18T03:41:21;22.70;85.90
13310;DHT22;6723;48.256;16.402;2022-08-18T03:43:49;22.80;87.00
13310;DHT22;6723;48.256;16.402;2022-08-18T03:46:17;22.80;87.40
13310;DHT22;6723;48.256;16.402;2022-08-18T03:48:44;22.80;87.70
13310;DHT22;6723;48.256;16.402;2022-08-18T03:51:16;22.70;87.20
13310;DHT22;6723;48.256;16.402;2022-08-18T03:53:44;22.70;87.90
13310;DHT22;6723;48.256;16.402;2022-08-18T03:56:13;22.70;88.30
13310;DHT22;6723;48.256;16.402;2022-08-18T03:58:47;22.80;88.60
13310;DHT22;6723;48.256;16.402;2022-08-18T04:01:16;22.80;88.40
13310;DHT22;6723;48.256;16.402;2022-08-18T04:03:43;22.90;88.30
13310;DHT22;6723;48.256;16.402;2022-08-18T04:06:17;22.90;88.30
13310;DHT22;6723;48.256;16.402;2022-08-18T04:08:44;22.90;88.50
13310;DHT22;6723;48.256;16.402;2022-08-18T04:11:13;23.00;88.50
13310;DHT22;6723;48.256;16.402;2022-08-18T04:13:40;23.00;88.30
13310;DHT22;6723;48.256;16.402;2022-08-18T04:16:07;23.00;88.80
13310;DHT22;6723;48.256;16.402;2022-08-18T04:18:32;23.00;88.80
13310;DHT22;6723;48.256;16.402;2022-08-18T04:21:07;23.10;88.90
13310;DHT22;6723;48.256;16.402;2022-08-18T04:23:34;23.10;88.70
13310;DHT22;6723;48.256;16.402;2022-08-18T04:26:00;23.10;88.60
13310;DHT22;6723;48.256;16.402;2022-08-18T04:28:27;23.20;89.20
13310;DHT22;6723;48.256;16.402;2022-08-18T04:30:54;23.30;89.30
13310;DHT22;6723;48.256;16.402;2022-08-18T04:33:25;23.40;89.80
13310;DHT22;6723;48.256;16.402;2022-08-18T04:35:53;23.40;89.20
13310;DHT22;6723;48.256;16.402;2022-08-18T04:38:19;23.50;89.00
13310;DHT22;6723;48.256;16.402;2022-08-18T04:40:45;23.50;88.20
13310;DHT22;6723;48.256;16.402;2022-08-18T04:43:12;23.40;88.40
13310;DHT22;6723;48.256;16.402;2022-08-18T04:45:46;23.40;88.80
13310;DHT22;6723;48.256;16.402;2022-08-18T04:48:13;23.50;89.00
13310;DHT22;6723;48.256;16.402;2022-08-18T04:50:41;23.30;90.70
13310;DHT22;6723;48.256;16.402;2022-08-18T04:53:08;23.30;90.90
13310;DHT22;6723;48.256;16.402;2022-08-18T04:55:54;23.40;90.90
13310;DHT22;6723;48.256;16.402;2022-08-18T04:58:22;23.60;91.00
13310;DHT22;6723;48.256;16.402;2022-08-18T05:00:59;23.70;90.90
13310;DHT22;6723;48.256;16.402;2022-08-18T05:03:26;23.90;90.70
13310;DHT22;6723;48.256;16.402;2022-08-18T05:06:03;24.00;90.30
13310;DHT22;6723;48.256;16.402;2022-08-18T05:08:31;24.20;90.40
13310;DHT22;6723;48.256;16.402;2022-08-18T05:10:58;24.30;90.50
13310;DHT22;6723;48.256;16.402;2022-08-18T05:13:23;24.40;89.90
13310;DHT22;6723;48.256;16.402;2022-08-18T05:16:07;24.50;89.20
13310;DHT22;6723;48.256;16.402;2022-08-18T05:18:34;24.30;88.20
13310;DHT22;6723;48.256;16.402;2022-08-18T05:21:09;24.20;88.80
13310;DHT22;6723;48.256;16.402;2022-08-18T05:23:41;24.40;88.60
13310;DHT22;6723;48.256;16.402;2022-08-18T05:26:09;24.60;88.10
13310;DHT22;6723;48.256;16.402;2022-08-18T05:28:35;24.30;88.60
13310;DHT22;6723;48.256;16.402;2022-08-18T05:31:10;24.40;89.00
13310;DHT22;6723;48.256;16.402;2022-08-18T05:33:37;24.80;88.30
13310;DHT22;6723;48.256;16.402;2022-08-18T05:39:45;25.00;87.50
13310;DHT22;6723;48.256;16.402;2022-08-18T05:42:19;25.30;86.40
13310;DHT22;6723;48.256;16.402;2022-08-18T05:48:08;25.70;85.00
13310;DHT22;6723;48.256;16.402;2022-08-18T05:50:34;25.90;83.80
13310;DHT22;6723;48.256;16.402;2022-08-18T05:53:12;25.60;83.80
13310;DHT22;6723;48.256;16.402;2022-08-18T05:55:57;25.40;84.60
13310;DHT22;6723;48.256;16.402;2022-08-18T05:58:48;25.40;84.40
13310;DHT22;6723;48.256;16.402;2022-08-18T06:01:21;25.40;85.00
13310;DHT22;6723;48.256;16.402;2022-08-18T06:03:56;25.60;84.10
13310;DHT22;6723;48.256;16.402;2022-08-18T06:06:26;25.60;84.70
13310;DHT22;6723;48.256;16.402;2022-08-18T06:11:44;25.80;84.10
13310;DHT22;6723;48.256;16.402;2022-08-18T06:14:11;25.80;83.20
13310;DHT22;6723;48.256;16.402;2022-08-18T06:17:14;26.00;83.80
13310;DHT22;6723;48.256;16.402;2022-08-18T06:19:56;26.00;83.70
13310;DHT22;6723;48.256;16.402;2022-08-18T06:25:52;25.90;83.50
13310;DHT22;6723;48.256;16.402;2022-08-18T06:28:20;26.40;82.70
13310;DHT22;6723;48.256;16.402;2022-08-18T06:33:57;26.80;81.00
13310;DHT22;6723;48.256;16.402;2022-08-18T06:41:44;26.90;80.50
13310;DHT22;6723;48.256;16.402;2022-08-18T06:45:34;27.10;80.00
13310;DHT22;6723;48.256;16.402;2022-08-18T06:47:48;27.00;79.90
13310;DHT22;6723;48.256;16.402;2022-08-18T06:50:27;27.20;79.10
13310;DHT22;6723;48.256;16.402;2022-08-18T06:53:03;27.60;78.80
13310;DHT22;6723;48.256;16.402;2022-08-18T06:55:38;27.80;78.20
13310;DHT22;6723;48.256;16.402;2022-08-18T06:58:28;28.20;77.30
13310;DHT22;6723;48.256;16.402;2022-08-18T07:00:57;28.10;76.40
13310;DHT22;6723;48.256;16.402;2022-08-18T07:04:02;28.00;77.30
13310;DHT22;6723;48.256;16.402;2022-08-18T07:06:29;28.40;75.20
13310;DHT22;6723;48.256;16.402;2022-08-18T07:09:17;28.30;74.70
13310;DHT22;6723;48.256;16.402;2022-08-18T07:11:59;28.50;74.50
13310;DHT22;6723;48.256;16.402;2022-08-18T07:14:25;29.10;73.40
13310;DHT22;6723;48.256;16.402;2022-08-18T07:17:10;29.30;72.30
13310;DHT22;6723;48.256;16.402;2022-08-18T07:19:36;30.30;70.40
13310;DHT22;6723;48.256;16.402;2022-08-18T07:22:09;31.20;68.90
13310;DHT22;6723;48.256;16.402;2022-08-18T07:24:52;31.90;65.90
13310;DHT22;6723;48.256;16.402;2022-08-18T07:32:49;34.60;59.80
13310;DHT22;6723;48.256;16.402;2022-08-18T07:35:21;35.20;56.60
13310;DHT22;6723;48.256;16.402;2022-08-18T07:40:54;36.00;54.60
13310;DHT22;6723;48.256;16.402;2022-08-18T07:43:32;37.00;54.60
13310;DHT22;6723;48.256;16.402;2022-08-18T07:46:11;37.40;52.70
13310;DHT22;6723;48.256;16.402;2022-08-18T07:48:38;37.00;52.10
13310;DHT22;6723;48.256;16.402;2022-08-18T07:51:24;36.90;52.40
13310;DHT22;6723;48.256;16.402;2022-08-18T07:53:58;37.40;51.50
13310;DHT22;6723;48.256;16.402;2022-08-18T07:59:20;38.00;49.90
13310;DHT22;6723;48.256;16.402;2022-08-18T08:07:50;37.30;48.70
13310;DHT22;6723;48.256;16.402;2022-08-18T08:10:40;37.60;48.60
13310;DHT22;6723;48.256;16.402;2022-08-18T08:22:16;37.10;48.00
13310;DHT22;6723;48.256;16.402;2022-08-18T08:30:09;38.50;47.80
13310;DHT22;6723;48.256;16.402;2022-08-18T08:35:14;39.60;46.20
13310;DHT22;6723;48.256;16.402;2022-08-18T08:37:52;40.30;45.20
13310;DHT22;6723;48.256;16.402;2022-08-18T08:40:25;40.50;45.50
13310;DHT22;6723;48.256;16.402;2022-08-18T08:43:03;40.90;45.10
13310;DHT22;6723;48.256;16.402;2022-08-18T08:45:36;41.70;43.70
13310;DHT22;6723;48.256;16.402;2022-08-18T08:48:08;41.80;43.70
13310;DHT22;6723;48.256;16.402;2022-08-18T08:50:43;41.80;42.70
13310;DHT22;6723;48.256;16.402;2022-08-18T08:53:24;42.20;42.50
13310;DHT22;6723;48.256;16.402;2022-08-18T08:56:00;42.00;42.40
13310;DHT22;6723;48.256;16.402;2022-08-18T08:58:38;41.90;42.40
13310;DHT22;6723;48.256;16.402;2022-08-18T09:26:50;39.30;45.50
13310;DHT22;6723;48.256;16.402;2022-08-18T09:40:51;37.20;46.70
13310;DHT22;6723;48.256;16.402;2022-08-18T09:43:49;36.30;48.50
13310;DHT22;6723;48.256;16.402;2022-08-18T09:51:58;36.80;49.20
13310;DHT22;6723;48.256;16.402;2022-08-18T09:54:32;36.40;49.60
13310;DHT22;6723;48.256;16.402;2022-08-18T09:57:13;36.90;50.40
13310;DHT22;6723;48.256;16.402;2022-08-18T10:10:50;36.50;50.20
13310;DHT22;6723;48.256;16.402;2022-08-18T10:21:17;36.90;49.20
13310;DHT22;6723;48.256;16.402;2022-08-18T10:29:07;35.90;51.10
13310;DHT22;6723;48.256;16.402;2022-08-18T10:39:50;35.70;51.60
13310;DHT22;6723;48.256;16.402;2022-08-18T10:42:27;36.10;51.00
13310;DHT22;6723;48.256;16.402;2022-08-18T10:45:22;36.40;51.20
13310;DHT22;6723;48.256;16.402;2022-08-18T10:50:41;37.30;50.00
13310;DHT22;6723;48.256;16.402;2022-08-18T10:53:15;38.10;49.70
13310;DHT22;6723;48.256;16.402;2022-08-18T11:06:25;37.10;48.80
13310;DHT22;6723;48.256;16.402;2022-08-18T11:08:55;36.90;50.00
13310;DHT22;6723;48.256;16.402;2022-08-18T11:11:25;37.10;49.10
13310;DHT22;6723;48.256;16.402;2022-08-18T11:17:04;36.80;49.50
13310;DHT22;6723;48.256;16.402;2022-08-18T11:19:38;37.40;49.30
13310;DHT22;6723;48.256;16.402;2022-08-18T11:25:29;37.70;48.90
13310;DHT22;6723;48.256;16.402;2022-08-18T11:27:56;37.20;49.60
13310;DHT22;6723;48.256;16.402;2022-08-18T11:30:33;37.00;49.20
13310;DHT22;6723;48.256;16.402;2022-08-18T11:33:02;37.20;48.70
13310;DHT22;6723;48.256;16.402;2022-08-18T11:35:34;37.30;46.90
13310;DHT22;6723;48.256;16.402;2022-08-18T11:38:13;36.50;48.70
13310;DHT22;6723;48.256;16.402;2022-08-18T11:40:46;36.50;48.10
13310;DHT22;6723;48.256;16.402;2022-08-18T11:43:16;37.50;47.50
13310;DHT22;6723;48.256;16.402;2022-08-18T11:56:14;36.80;47.80
13310;DHT22;6723;48.256;16.402;2022-08-18T12:06:59;37.50;47.60
13310;DHT22;6723;48.256;16.402;2022-08-18T12:12:21;37.10;47.40
13310;DHT22;6723;48.256;16.402;2022-08-18T12:17:22;36.30;49.00
13310;DHT22;6723;48.256;16.402;2022-08-18T12:19:48;37.10;49.10
13310;DHT22;6723;48.256;16.402;2022-08-18T12:22:43;37.30;47.40
13310;DHT22;6723;48.256;16.402;2022-08-18T12:25:13;37.60;47.90
13310;DHT22;6723;48.256;16.402;2022-08-18T12:27:40;37.70;46.80
13310;DHT22;6723;48.256;16.402;2022-08-18T12:30:07;38.00;46.30
13310;DHT22;6723;48.256;16.402;2022-08-18T12:32:35;38.20;46.10
13310;DHT22;6723;48.256;16.402;2022-08-18T12:35:03;38.50;45.80
13310;DHT22;6723;48.256;16.402;2022-08-18T12:37:30;38.30;45.80
13310;DHT22;6723;48.256;16.402;2022-08-18T12:39:57;38.20;46.20
13310;DHT22;6723;48.256;16.402;2022-08-18T12:42:25;38.10;45.80
13310;DHT22;6723;48.256;16.402;2022-08-18T12:44:51;37.80;46.20
13310;DHT22;6723;48.256;16.402;2022-08-18T12:47:25;38.00;46.20
13310;DHT22;6723;48.256;16.402;2022-08-18T12:49:52;38.10;46.10
13310;DHT22;6723;48.256;16.402;2022-08-18T12:52:18;37.90;46.40
13310;DHT22;6723;48.256;16.402;2022-08-18T12:54:44;37.60;47.00
13310;DHT22;6723;48.256;16.402;2022-08-18T12:57:31;37.50;46.50
13310;DHT22;6723;48.256;16.402;2022-08-18T12:59:57;37.50;46.50
13310;DHT22;6723;48.256;16.402;2022-08-18T13:02:23;37.40;46.60
13310;DHT22;6723;48.256;16.402;2022-08-18T13:04:49;37.40;46.10
13310;DHT22;6723;48.256;16.402;2022-08-18T13:07:15;37.70;47.00
13310;DHT22;6723;48.256;16.402;2022-08-18T13:09:41;37.60;46.30
13310;DHT22;6723;48.256;16.402;2022-08-18T13:12:08;37.50;46.00
13310;DHT22;6723;48.256;16.402;2022-08-18T13:14:34;37.60;46.30
13310;DHT22;6723;48.256;16.402;2022-08-18T13:20:09;37.40;46.50
13310;DHT22;6723;48.256;16.402;2022-08-18T13:22:38;37.60;46.60
13310;DHT22;6723;48.256;16.402;2022-08-18T13:25:11;37.70;46.00
13310;DHT22;6723;48.256;16.402;2022-08-18T13:27:37;37.60;45.80
13310;DHT22;6723;48.256;16.402;2022-08-18T13:30:08;37.60;45.90
13310;DHT22;6723;48.256;16.402;2022-08-18T13:32:35;37.60;46.20
13310;DHT22;6723;48.256;16.402;2022-08-18T13:35:02;36.70;46.80
13310;DHT22;6723;48.256;16.402;2022-08-18T13:37:29;36.50;46.90
13310;DHT22;6723;48.256;16.402;2022-08-18T13:39:57;36.20;47.50
13310;DHT22;6723;48.256;16.402;2022-08-18T13:42:23;36.50;46.70
13310;DHT22;6723;48.256;16.402;2022-08-18T13:44:50;36.10;46.40
13310;DHT22;6723;48.256;16.402;2022-08-18T13:47:16;35.80;47.20
13310;DHT22;6723;48.256;16.402;2022-08-18T13:49:42;35.70;47.00
13310;DHT22;6723;48.256;16.402;2022-08-18T13:52:10;35.60;47.60
13310;DHT22;6723;48.256;16.402;2022-08-18T13:54:37;35.80;47.10
13310;DHT22;6723;48.256;16.402;2022-08-18T13:57:03;36.10;47.20
13310;DHT22;6723;48.256;16.402;2022-08-18T13:59:29;36.30;46.90
13310;DHT22;6723;48.256;16.402;2022-08-18T14:01:59;36.40;46.00
13310;DHT22;6723;48.256;16.402;2022-08-18T14:04:25;36.10;45.40
13310;DHT22;6723;48.256;16.402;2022-08-18T14:06:53;36.20;45.70
13310;DHT22;6723;48.256;16.402;2022-08-18T14:09:20;36.30;45.30
13310;DHT22;6723;48.256;16.402;2022-08-18T14:11:46;36.50;45.90
13310;DHT22;6723;48.256;16.402;2022-08-18T14:14:13;36.60;45.70
13310;DHT22;6723;48.256;16.402;2022-08-18T14:16:39;36.50;45.10
13310;DHT22;6723;48.256;16.402;2022-08-18T14:19:04;35.90;45.10
13310;DHT22;6723;48.256;16.402;2022-08-18T14:21:51;35.50;45.70
13310;DHT22;6723;48.256;16.402;2022-08-18T14:24:37;35.30;45.70
13310;DHT22;6723;48.256;16.402;2022-08-18T14:27:31;35.20;45.80
13310;DHT22;6723;48.256;16.402;2022-08-18T14:30:00;35.10;46.20
13310;DHT22;6723;48.256;16.402;2022-08-18T14:32:27;35.30;46.40
13310;DHT22;6723;48.256;16.402;2022-08-18T14:34:59;35.50;46.10
13310;DHT22;6723;48.256;16.402;2022-08-18T14:37:26;35.50;46.20
13310;DHT22;6723;48.256;16.402;2022-08-18T14:39:52;35.40;47.10
13310;DHT22;6723;48.256;16.402;2022-08-18T14:42:19;35.40;46.80
13310;DHT22;6723;48.256;16.402;2022-08-18T14:44:47;35.40;46.70
13310;DHT22;6723;48.256;16.402;2022-08-18T14:47:13;35.30;46.70
13310;DHT22;6723;48.256;16.402;2022-08-18T14:49:40;35.10;47.20
13310;DHT22;6723;48.256;16.402;2022-08-18T14:52:08;34.90;47.60
13310;DHT22;6723;48.256;16.402;2022-08-18T14:54:36;35.00;47.50
13310;DHT22;6723;48.256;16.402;2022-08-18T14:57:02;35.00;47.70
13310;DHT22;6723;48.256;16.402;2022-08-18T14:59:30;35.00;48.10
13310;DHT22;6723;48.256;16.402;2022-08-18T15:01:57;34.90;48.30
13310;DHT22;6723;48.256;16.402;2022-08-18T15:04:24;35.00;48.40
13310;DHT22;6723;48.256;16.402;2022-08-18T15:06:52;34.90;48.50
13310;DHT22;6723;48.256;16.402;2022-08-18T15:09:18;35.00;48.60
13310;DHT22;6723;48.256;16.402;2022-08-18T15:11:43;34.90;48.80
13310;DHT22;6723;48.256;16.402;2022-08-18T15:14:09;35.00;48.80
13310;DHT22;6723;48.256;16.402;2022-08-18T15:16:35;35.10;49.00
13310;DHT22;6723;48.256;16.402;2022-08-18T15:19:02;35.10;48.90
13310;DHT22;6723;48.256;16.402;2022-08-18T15:21:29;35.00;48.90
13310;DHT22;6723;48.256;16.402;2022-08-18T15:24:15;35.00;49.00
13310;DHT22;6723;48.256;16.402;2022-08-18T15:26:59;34.80;49.30
13310;DHT22;6723;48.256;16.402;2022-08-18T15:29:28;34.80;49.70
13310;DHT22;6723;48.256;16.402;2022-08-18T15:31:54;34.90;49.70
13310;DHT22;6723;48.256;16.402;2022-08-18T15:34:20;35.00;49.50
13310;DHT22;6723;48.256;16.402;2022-08-18T15:36:47;34.80;49.20
13310;DHT22;6723;48.256;16.402;2022-08-18T15:39:13;34.80;49.30
13310;DHT22;6723;48.256;16.402;2022-08-18T15:41:42;34.70;49.70
13310;DHT22;6723;48.256;16.402;2022-08-18T15:44:15;34.50;49.70
13310;DHT22;6723;48.256;16.402;2022-08-18T15:46:42;34.50;50.20
13310;DHT22;6723;48.256;16.402;2022-08-18T15:49:09;34.50;50.00
13310;DHT22;6723;48.256;16.402;2022-08-18T15:51:36;34.40;49.80
13310;DHT22;6723;48.256;16.402;2022-08-18T15:54:03;34.30;49.80
13310;DHT22;6723;48.256;16.402;2022-08-18T15:56:29;34.30;49.90
13310;DHT22;6723;48.256;16.402;2022-08-18T15:58:57;34.20;49.80
13310;DHT22;6723;48.256;16.402;2022-08-18T16:01:24;34.10;50.00
13310;DHT22;6723;48.256;16.402;2022-08-18T16:03:51;34.00;50.40
13310;DHT22;6723;48.256;16.402;2022-08-18T16:06:22;33.90;50.30
13310;DHT22;6723;48.256;16.402;2022-08-18T16:08:52;33.80;50.50
13310;DHT22;6723;48.256;16.402;2022-08-18T16:11:19;33.80;50.90
13310;DHT22;6723;48.256;16.402;2022-08-18T16:13:47;33.70;51.30
13310;DHT22;6723;48.256;16.402;2022-08-18T16:16:20;33.70;51.80
13310;DHT22;6723;48.256;16.402;2022-08-18T16:18:47;33.50;51.60
13310;DHT22;6723;48.256;16.402;2022-08-18T16:21:16;33.50;52.10
13310;DHT22;6723;48.256;16.402;2022-08-18T16:23:46;33.50;51.90
13310;DHT22;6723;48.256;16.402;2022-08-18T16:26:14;33.50;52.30
13310;DHT22;6723;48.256;16.402;2022-08-18T16:28:46;33.40;52.60
13310;DHT22;6723;48.256;16.402;2022-08-18T16:31:13;33.30;51.90
13310;DHT22;6723;48.256;16.402;2022-08-18T16:33:44;33.30;52.10
13310;DHT22;6723;48.256;16.402;2022-08-18T16:36:11;33.20;51.80
13310;DHT22;6723;48.256;16.402;2022-08-18T16:38:40;33.10;52.00
13310;DHT22;6723;48.256;16.402;2022-08-18T16:41:12;33.00;52.40
13310;DHT22;6723;48.256;16.402;2022-08-18T16:43:43;33.00;52.90
13310;DHT22;6723;48.256;16.402;2022-08-18T16:46:19;32.80;53.60
13310;DHT22;6723;48.256;16.402;2022-08-18T16:48:48;32.60;54.30
13310;DHT22;6723;48.256;16.402;2022-08-18T16:51:17;32.40;55.20
13310;DHT22;6723;48.256;16.402;2022-08-18T16:53:44;32.10;56.10
13310;DHT22;6723;48.256;16.402;2022-08-18T16:56:16;31.90;57.10
13310;DHT22;6723;48.256;16.402;2022-08-18T16:58:43;31.60;58.20
13310;DHT22;6723;48.256;16.402;2022-08-18T17:01:27;31.40;58.90
13310;DHT22;6723;48.256;16.402;2022-08-18T17:04:15;31.00;59.70
13310;DHT22;6723;48.256;16.402;2022-08-18T17:06:43;30.90;60.90
13310;DHT22;6723;48.256;16.402;2022-08-18T17:09:10;30.70;61.10
13310;DHT22;6723;48.256;16.402;2022-08-18T17:11:37;30.60;61.70
13310;DHT22;6723;48.256;16.402;2022-08-18T17:14:05;30.40;62.50
13310;DHT22;6723;48.256;16.402;2022-08-18T17:16:33;30.20;62.70
13310;DHT22;6723;48.256;16.402;2022-08-18T17:18:59;29.90;62.60
13310;DHT22;6723;48.256;16.402;2022-08-18T17:21:28;29.70;63.10
13310;DHT22;6723;48.256;16.402;2022-08-18T17:23:55;29.50;63.40
13310;DHT22;6723;48.256;16.402;2022-08-18T17:26:35;29.50;63.80
13310;DHT22;6723;48.256;16.402;2022-08-18T17:29:13;29.50;64.10
13310;DHT22;6723;48.256;16.402;2022-08-18T17:31:48;29.50;64.40
13310;DHT22;6723;48.256;16.402;2022-08-18T17:34:15;29.50;64.80
13310;DHT22;6723;48.256;16.402;2022-08-18T17:36:54;29.40;64.50
13310;DHT22;6723;48.256;16.402;2022-08-18T17:39:36;29.40;64.80
13310;DHT22;6723;48.256;16.402;2022-08-18T17:42:05;29.30;65.10
13310;DHT22;6723;48.256;16.402;2022-08-18T17:44:53;29.30;63.90
13310;DHT22;6723;48.256;16.402;2022-08-18T17:47:29;29.10;64.40
13310;DHT22;6723;48.256;16.402;2022-08-18T17:50:00;29.00;64.00
13310;DHT22;6723;48.256;16.402;2022-08-18T17:52:48;28.90;62.70
13310;DHT22;6723;48.256;16.402;2022-08-18T17:55:29;28.80;63.10
13310;DHT22;6723;48.256;16.402;2022-08-18T17:58:05;28.80;63.10
13310;DHT22;6723;48.256;16.402;2022-08-18T18:04:28;28.80;63.80
13310;DHT22;6723;48.256;16.402;2022-08-18T18:06:55;28.80;64.20
13310;DHT22;6723;48.256;16.402;2022-08-18T18:11:55;28.60;64.30
13310;DHT22;6723;48.256;16.402;2022-08-18T18:14:32;28.50;64.80
13310;DHT22;6723;48.256;16.402;2022-08-18T18:19:32;28.40;65.30
13310;DHT22;6723;48.256;16.402;2022-08-18T18:22:07;28.40;66.00
13310;DHT22;6723;48.256;16.402;2022-08-18T18:24:37;28.40;66.40
13310;DHT22;6723;48.256;16.402;2022-08-18T18:30:00;28.40;67.00
13310;DHT22;6723;48.256;16.402;2022-08-18T18:32:31;28.30;67.00
13310;DHT22;6723;48.256;16.402;2022-08-18T18:35:27;28.20;67.20
13310;DHT22;6723;48.256;16.402;2022-08-18T18:37:58;28.10;67.90
13310;DHT22;6723;48.256;16.402;2022-08-18T18:43:15;28.00;67.80
13310;DHT22;6723;48.256;16.402;2022-08-18T18:46:48;28.00;68.00
13310;DHT22;6723;48.256;16.402;2022-08-18T18:54:54;27.80;68.50
13310;DHT22;6723;48.256;16.402;2022-08-18T19:00:37;27.70;69.70
13310;DHT22;6723;48.256;16.402;2022-08-18T19:11:40;27.40;71.80
13310;DHT22;6723;48.256;16.402;2022-08-18T19:14:19;27.40;72.70
13310;DHT22;6723;48.256;16.402;2022-08-18T19:17:39;27.30;73.00
13310;DHT22;6723;48.256;16.402;2022-08-18T19:20:01;27.20;73.10
13310;DHT22;6723;48.256;16.402;2022-08-18T19:25:43;27.10;73.90
13310;DHT22;6723;48.256;16.402;2022-08-18T19:28:22;27.00;73.80
13310;DHT22;6723;48.256;16.402;2022-08-18T19:30:54;27.00;73.90